Time;durP1;ratioP1;P1;durP2;ratioP2;P2;SDS_P1;SDS_P2;PMS_P1;PMS_P2;Temp;Humidity;BMP_temperature;BMP_pressure;BME280_temperature;BME280_humidity;BME280_pressure;Samples;Min_cycle;Max_cycle;Signal;HPM_P1;HPM_P2
2022/07/14 07:07:47;;;;;;;8.80;2.55;;;;;;;;;;12470442;22;11483483;-81
2022/07/14 07:12:52;;;;;;;8.27;2.17;;;;;;;;;;12950482;23;20012;-81
2022/07/14 07:17:53;;;;;;;7.43;2.30;;;;;;;;;;12919700;23;20004;-80
2022/07/14 07:22:54;;;;;;;7.38;2.25;;;;;;;;;;12920058;23;20035;-81
2022/07/14 07:27:57;;;;;;;7.15;2.28;;;;;;;;;;12918189;23;20008;-81
2022/07/14 07:33:00;;;;;;;9.60;4.47;;;;;;;;;;12926222;23;20027;-81
2022/07/14 07:38:01;;;;;;;7.78;4.57;;;;;;;;;;12931004;23;19999;-81
2022/07/14 07:43:03;;;;;;;5.72;2.75;;;;;;;;;;12962183;23;20353;-80
2022/07/14 07:48:06;;;;;;;6.72;3.97;;;;;;;;;;12926420;23;20495;-82
2022/07/14 07:53:13;;;;;;;7.38;5.05;;;;;;;;;;12922232;23;20004;-82
2022/07/14 07:58:25;;;;;;;5.43;2.63;;;;;;;;;;12926890;23;20012;-81
2022/07/14 08:03:42;;;;;;;10.52;6.10;;;;;;;;;;12960642;23;20000;-82
2022/07/14 08:08:49;;;;;;;5.90;3.42;;;;;;;;;;12928584;23;20012;-81
2022/07/14 08:20:00;;;;;;;7.57;4.78;;;;;;;;;;12953941;23;20020;-87
2022/07/14 08:25:03;;;;;;;8.25;3.78;;;;;;;;;;12920140;23;20012;-81
2022/07/14 08:30:07;;;;;;;5.85;3.92;;;;;;;;;;12967559;23;20048;-83
2022/07/14 08:35:15;;;;;;;8.63;5.05;;;;;;;;;;12907564;23;20008;-83
2022/07/14 08:40:37;;;;;;;6.15;3.25;;;;;;;;;;12933706;23;20005;-83
2022/07/14 08:46:05;;;;;;;5.63;2.03;;;;;;;;;;12932433;23;20035;-82
2022/07/14 08:51:08;;;;;;;6.18;2.47;;;;;;;;;;12953231;23;20012;-82
2022/07/14 08:56:35;;;;;;;5.85;1.95;;;;;;;;;;12929039;23;20010;-82
2022/07/14 09:01:49;;;;;;;6.13;2.25;;;;;;;;;;12930198;23;20104;-82
2022/07/14 09:07:04;;;;;;;5.75;1.70;;;;;;;;;;12954415;23;20019;-81
2022/07/14 09:12:24;;;;;;;9.63;6.60;;;;;;;;;;12933888;23;20004;-82
2022/07/14 09:17:30;;;;;;;5.18;2.15;;;;;;;;;;12928399;23;20008;-82
2022/07/14 09:22:57;;;;;;;6.10;1.83;;;;;;;;;;12925016;23;20026;-82
2022/07/14 09:28:45;;;;;;;4.28;1.80;;;;;;;;;;12951175;23;20004;-82
2022/07/14 09:34:36;;;;;;;5.55;1.88;;;;;;;;;;12942951;23;20072;-84
2022/07/14 09:51:08;;;;;;;6.10;1.50;;;;;;;;;;12937319;23;20343;-81
2022/07/14 09:56:29;;;;;;;4.20;1.77;;;;;;;;;;12977885;22;20010;-82
2022/07/14 10:02:26;;;;;;;7.38;1.33;;;;;;;;;;12960543;22;20012;-82
2022/07/14 10:07:29;;;;;;;4.57;1.67;;;;;;;;;;12671730;23;20014;-81
2022/07/14 10:13:14;;;;;;;6.65;2.63;;;;;;;;;;12696019;23;20010;-82
2022/07/14 10:18:49;;;;;;;4.35;1.70;;;;;;;;;;12681570;23;20010;-82
2022/07/14 10:24:08;;;;;;;3.80;1.42;;;;;;;;;;12864817;23;20008;-84
2022/07/14 10:29:10;;;;;;;6.80;1.45;;;;;;;;;;12954609;22;20011;-84
2022/07/14 10:34:36;;;;;;;5.22;1.40;;;;;;;;;;12955164;23;20056;-81
2022/07/14 10:39:50;;;;;;;4.03;1.70;;;;;;;;;;12956600;22;20008;-82
2022/07/14 10:45:10;;;;;;;5.32;1.42;;;;;;;;;;12949226;23;20023;-83
2022/07/14 10:50:30;;;;;;;2.70;1.30;;;;;;;;;;12940130;22;20027;-84
2022/07/14 10:55:40;;;;;;;4.10;1.20;;;;;;;;;;12938961;23;20019;-84
2022/07/14 11:01:00;;;;;;;4.37;1.50;;;;;;;;;;12886137;22;20008;-86
2022/07/14 11:06:21;;;;;;;6.15;1.50;;;;;;;;;;12941834;23;20231;-85
2022/07/14 11:17:47;;;;;;;4.20;1.83;;;;;;;;;;12868023;23;20008;-82
2022/07/14 11:23:39;;;;;;;4.57;1.40;;;;;;;;;;12877235;23;20016;-84
2022/07/14 11:29:15;;;;;;;5.78;1.80;;;;;;;;;;12663421;23;20025;-83
2022/07/14 11:40:14;;;;;;;2.42;1.10;;;;;;;;;;12705737;23;19998;-84
2022/07/14 11:56:38;;;;;;;3.67;1.50;;;;;;;;;;12934420;23;20427;-87
2022/07/14 12:02:17;;;;;;;6.57;1.48;;;;;;;;;;12933519;22;20000;-87
2022/07/14 12:08:12;;;;;;;3.22;1.30;;;;;;;;;;12863134;23;20031;-87
2022/07/14 12:13:40;;;;;;;3.65;1.33;;;;;;;;;;12863734;23;20005;-87
2022/07/14 12:19:15;;;;;;;5.20;1.73;;;;;;;;;;12822800;23;20162;-87
2022/07/14 12:24:16;;;;;;;3.85;1.25;;;;;;;;;;12898020;23;20067;-85
2022/07/14 12:29:22;;;;;;;3.45;1.20;;;;;;;;;;12933834;22;20095;-86
2022/07/14 12:34:43;;;;;;;4.38;1.70;;;;;;;;;;12935016;23;20447;-86
2022/07/14 12:40:08;;;;;;;2.53;1.25;;;;;;;;;;12939329;22;20004;-86
2022/07/14 13:19:55;;;;;;;2.08;1.08;;;;;;;;;;12771249;23;20335;-81
2022/07/14 15:19:53;;;;;;;3.90;1.17;;;;;;;;;;13025560;22;20022;-82
2022/07/14 15:25:16;;;;;;;3.30;1.30;;;;;;;;;;13001069;22;20007;-82
2022/07/14 15:30:29;;;;;;;2.45;1.17;;;;;;;;;;13002180;22;20011;-82
2022/07/14 15:35:30;;;;;;;8.02;5.10;;;;;;;;;;13030232;22;19996;-82
2022/07/14 15:51:33;;;;;;;3.20;1.80;;;;;;;;;;12850366;23;19994;-82
2022/07/14 15:57:18;;;;;;;4.90;1.50;;;;;;;;;;13035703;22;20472;-82
2022/07/14 16:14:07;;;;;;;3.63;1.85;;;;;;;;;;13023043;22;19996;-80
2022/07/14 16:19:17;;;;;;;2.97;1.50;;;;;;;;;;12828323;23;20009;-81
2022/07/14 16:24:23;;;;;;;6.38;1.95;;;;;;;;;;12877319;22;20015;-83
2022/07/14 16:52:24;;;;;;;4.32;1.30;;;;;;;;;;13027217;22;19999;-88
